Arnett, Texas
Current Conditions -  °F | °C
As of 2:55 AM on Sunday 21 Dec 2014 (Local Time) from KGOP Reporting Station
Overcast Overcast  
Wind Chill: 48°   Ceiling: 1700
Heat Index: 48°   Visibility: 4mi
Dew Point: 46°   Wind: 0mph
Humidity: 93%   Direction: NA
Pressure: 30.16"   Gusts: NA
Location:  31.392°N, 97.7452°W
Report Text: KGOP 210855Z AUTO 00000KT 4SM OVC017 09/08 A3016 RMK AO2 PWINO
Loading
Personal Weather Stations






























Interactive Weather Map New forecast layout! Learn more

10-Day Weather Forecast

Advertisements
Track Severe Weather on mobile